Terminal Aerodrome Forecast
Issued by NWS Blacksburg, VA

Home | Current Version | Previous Version | Text Only | Print | Product List | Glossary On
Versions: 1 2 3 4 5 6 7 8 9 10 11 12 13 14 15
000
FTUS41 KRNK 302326
TAFDAN
TAF
KDAN 302326Z 3100/3124 02004KT P6SM SKC
     FM310600 04003KT P6SM SCT040
     FM311900 09005KT P6SM BKN050=

USA.gov is the U.S. government's official web portal to all federal, state and local government web resources and services.